createdAt,value
2019-01-30T00:00:36.712Z,94411.64
2019-01-30T00:03:04.016Z,94418.19
2019-01-30T00:05:31.045Z,94409.20
2019-01-30T00:07:58.099Z,94411.20
2019-01-30T00:10:25.154Z,94400.29
2019-01-30T00:12:52.195Z,94399.67
2019-01-30T00:15:19.358Z,94394.12
2019-01-30T00:17:47.475Z,94395.24
2019-01-30T00:20:14.541Z,94384.58
2019-01-30T00:22:41.602Z,94376.84
2019-01-30T00:25:08.752Z,94375.95
2019-01-30T00:27:35.790Z,94369.81
2019-01-30T00:30:05.089Z,94371.55
2019-01-30T00:32:32.131Z,94366.12
2019-01-30T00:34:59.194Z,94364.11
2019-01-30T00:37:26.252Z,94352.44
2019-01-30T00:39:53.322Z,94352.52
2019-01-30T00:42:20.371Z,94347.16
2019-01-30T00:44:47.425Z,94345.73
2019-01-30T00:47:15.877Z,94348.16
2019-01-30T00:49:43.217Z,94348.16
2019-01-30T00:52:10.273Z,94340.18
2019-01-30T00:54:37.345Z,94339.28
2019-01-30T00:57:04.402Z,94341.16
2019-01-30T00:59:31.459Z,94337.48
2019-01-30T01:01:58.513Z,94332.63
2019-01-30T01:04:25.585Z,94336.44
2019-01-30T01:06:52.655Z,94331.32
2019-01-30T01:09:19.732Z,94334.94
2019-01-30T01:11:46.793Z,94321.84
2019-01-30T01:14:13.839Z,94330.20
2019-01-30T01:16:40.883Z,94329.99
2019-01-30T01:19:07.965Z,94329.38
2019-01-30T01:21:35.006Z,94322.70
2019-01-30T01:24:02.081Z,94323.77
2019-01-30T01:26:29.106Z,94322.18
2019-01-30T01:28:56.153Z,94312.80
2019-01-30T01:31:23.185Z,94311.88
2019-01-30T01:33:50.232Z,94308.83
2019-01-30T01:36:17.287Z,94299.73
2019-01-30T01:38:44.338Z,94288.95
2019-01-30T01:41:11.379Z,94282.90
2019-01-30T01:43:38.413Z,94285.70
2019-01-30T01:46:05.479Z,94275.23
2019-01-30T01:48:32.535Z,94275.36
2019-01-30T01:50:59.589Z,94276.48
2019-01-30T01:53:26.633Z,94270.05
2019-01-30T01:55:53.690Z,94266.00
2019-01-30T01:58:20.739Z,94268.57
2019-01-30T02:00:47.798Z,94255.27
2019-01-30T02:03:14.877Z,94259.58
2019-01-30T02:05:41.926Z,94256.02
2019-01-30T02:08:08.992Z,94246.75
2019-01-30T02:10:36.017Z,94247.94
2019-01-30T02:13:03.192Z,94245.69
2019-01-30T02:15:30.260Z,94245.60
2019-01-30T02:17:57.309Z,94245.98
2019-01-30T02:20:27.103Z,94237.08
2019-01-30T02:22:54.136Z,94241.25
2019-01-30T02:25:21.186Z,94240.23
2019-01-30T02:27:48.249Z,94235.06
2019-01-30T02:30:17.770Z,94230.20
2019-01-30T02:32:44.810Z,94232.20
2019-01-30T02:35:11.974Z,94230.33
2019-01-30T02:37:39.032Z,94228.86
2019-01-30T02:40:07.579Z,94226.62
2019-01-30T02:42:34.620Z,94218.52
2019-01-30T02:45:01.662Z,94213.20
2019-01-30T02:47:28.723Z,94213.20
2019-01-30T02:49:55.790Z,94209.97
2019-01-30T02:52:22.836Z,94211.27
2019-01-30T02:54:49.872Z,94217.00
2019-01-30T02:57:16.923Z,94216.87
2019-01-30T02:59:43.967Z,94210.15
2019-01-30T03:02:17.933Z,94208.53
2019-01-30T03:04:45.009Z,94208.22
2019-01-30T03:07:12.055Z,94205.53
2019-01-30T03:09:39.091Z,94203.11
2019-01-30T03:12:06.158Z,94203.80
2019-01-30T03:14:33.203Z,94203.80
2019-01-30T03:17:00.233Z,94209.95
2019-01-30T03:19:27.270Z,94203.73
2019-01-30T03:21:54.348Z,94196.70
2019-01-30T03:24:21.391Z,94193.28
2019-01-30T03:26:48.440Z,94194.77
2019-01-30T03:29:15.510Z,94191.22
2019-01-30T03:31:42.547Z,94183.34
2019-01-30T03:34:09.620Z,94177.73
2019-01-30T03:36:36.699Z,94174.19
2019-01-30T03:39:06.466Z,94176.76
2019-01-30T03:41:33.501Z,94171.16
2019-01-30T03:44:00.547Z,94169.48
2019-01-30T03:46:27.572Z,94170.48
2019-01-30T03:48:54.632Z,94172.38
2019-01-30T03:51:21.653Z,94168.09
2019-01-30T03:53:48.693Z,94157.03
2019-01-30T03:56:15.753Z,94160.56
2019-01-30T03:58:42.801Z,94156.60
2019-01-30T04:01:09.853Z,94160.07
2019-01-30T04:03:36.891Z,94161.25
2019-01-30T04:06:03.991Z,94156.47
2019-01-30T04:08:31.048Z,94167.28
2019-01-30T04:10:58.103Z,94152.73
2019-01-30T04:13:25.144Z,94145.71
2019-01-30T04:15:52.206Z,94146.02
2019-01-30T04:18:19.244Z,94141.80
2019-01-30T04:20:46.310Z,94140.48
2019-01-30T04:23:14.558Z,94148.69
2019-01-30T04:25:41.615Z,94144.91
2019-01-30T04:28:08.692Z,94142.11
2019-01-30T04:30:35.737Z,94140.48
2019-01-30T04:33:02.804Z,94130.00
2019-01-30T04:35:29.860Z,94136.16
2019-01-30T04:37:56.890Z,94134.14
2019-01-30T04:40:23.948Z,94138.86
2019-01-30T04:42:51.006Z,94143.28
2019-01-30T04:45:20.064Z,94130.44
2019-01-30T04:47:47.193Z,94135.44
2019-01-30T04:50:14.254Z,94139.27
2019-01-30T04:52:41.295Z,94131.30
2019-01-30T04:55:08.597Z,94134.09
2019-01-30T04:57:35.746Z,94128.69
2019-01-30T05:03:05.004Z,94131.98
2019-01-30T05:05:32.136Z,94118.80
2019-01-30T05:07:59.189Z,94119.34
2019-01-30T05:10:26.261Z,94113.69
2019-01-30T05:12:53.361Z,94117.50
2019-01-30T05:15:20.429Z,94111.97
2019-01-30T05:17:47.490Z,94119.98
2019-01-30T05:20:15.919Z,94110.22
2019-01-30T05:22:43.069Z,94114.86
2019-01-30T05:25:10.254Z,94114.23
2019-01-30T05:27:37.279Z,94108.20
2019-01-30T05:30:08.323Z,94109.56
2019-01-30T05:32:35.375Z,94113.38
2019-01-30T05:35:02.401Z,94103.44
2019-01-30T05:37:29.469Z,94110.14
2019-01-30T05:39:56.515Z,94112.22
2019-01-30T05:42:23.577Z,94108.30
2019-01-30T05:44:50.620Z,94112.03
2019-01-30T05:47:17.663Z,94093.14
2019-01-30T05:49:44.742Z,94104.89
2019-01-30T05:52:11.821Z,94101.97
2019-01-30T05:54:38.887Z,94095.31
2019-01-30T05:57:05.955Z,94097.50
2019-01-30T05:59:33.019Z,94105.51
2019-01-30T06:02:00.081Z,94097.23
2019-01-30T06:04:27.129Z,94098.85
2019-01-30T06:06:54.215Z,94103.75
2019-01-30T06:09:21.252Z,94106.72
2019-01-30T06:11:48.309Z,94104.16
2019-01-30T06:14:15.344Z,94106.71
2019-01-30T06:16:42.518Z,94103.11
2019-01-30T06:19:09.552Z,94106.56
2019-01-30T06:21:36.607Z,94096.25
2019-01-30T06:24:03.686Z,94097.12
2019-01-30T06:26:30.747Z,94098.75
2019-01-30T06:28:57.793Z,94094.86
2019-01-30T06:31:27.055Z,94094.87
2019-01-30T06:33:59.908Z,94092.00
2019-01-30T06:36:26.980Z,94101.78
2019-01-30T06:38:54.040Z,94107.69
2019-01-30T06:41:21.082Z,94097.74
2019-01-30T06:43:48.113Z,94099.98
2019-01-30T06:46:15.258Z,94107.91
2019-01-30T06:48:42.315Z,94095.25
2019-01-30T06:51:09.341Z,94095.04
2019-01-30T06:53:36.389Z,94093.58
2019-01-30T06:56:03.464Z,94105.78
2019-01-30T06:58:30.508Z,94099.22
2019-01-30T07:00:57.576Z,94117.87
2019-01-30T07:03:24.620Z,94108.08
2019-01-30T07:05:51.676Z,94108.74
2019-01-30T07:08:18.713Z,94111.08
2019-01-30T07:10:45.747Z,94112.56
2019-01-30T07:13:12.788Z,94114.37
2019-01-30T07:15:39.837Z,94119.16
2019-01-30T07:18:06.872Z,94107.34
2019-01-30T07:20:33.908Z,94112.91
2019-01-30T07:23:00.978Z,94118.38
2019-01-30T07:25:28.012Z,94116.89
2019-01-30T07:27:55.042Z,94120.50
2019-01-30T07:30:29.822Z,94124.20
2019-01-30T07:32:56.869Z,94120.27
2019-01-30T07:35:23.946Z,94117.92
2019-01-30T07:37:50.969Z,94115.26
2019-01-30T07:40:18.118Z,94115.67
2019-01-30T07:42:45.182Z,94108.69
2019-01-30T07:45:13.285Z,94102.70
2019-01-30T07:47:40.347Z,94113.83
2019-01-30T07:50:07.893Z,94107.34
2019-01-30T07:52:34.959Z,94104.42
2019-01-30T07:55:02.006Z,94105.15
2019-01-30T07:57:29.076Z,94108.71
2019-01-30T07:59:56.133Z,94115.98
2019-01-30T08:02:23.197Z,94111.70
2019-01-30T08:04:50.233Z,94118.13
2019-01-30T08:07:17.303Z,94118.94
2019-01-30T08:09:44.342Z,94124.59
2019-01-30T08:12:12.628Z,94126.27
2019-01-30T08:14:39.850Z,94122.66
2019-01-30T08:17:06.907Z,94121.77
2019-01-30T08:19:33.937Z,94133.38
2019-01-30T08:22:00.995Z,94139.23
2019-01-30T08:24:28.196Z,94140.43
2019-01-30T08:26:55.459Z,94141.52
2019-01-30T08:29:22.670Z,94146.64
2019-01-30T08:31:50.163Z,94148.22
2019-01-30T08:34:17.243Z,94145.41
2019-01-30T08:36:44.286Z,94143.97
2019-01-30T08:39:11.367Z,94142.11
2019-01-30T08:41:38.418Z,94145.77
2019-01-30T08:44:05.518Z,94144.56
2019-01-30T08:46:32.560Z,94148.31
2019-01-30T08:48:59.687Z,94147.87
2019-01-30T08:51:26.722Z,94144.52
2019-01-30T08:53:53.769Z,94142.27
2019-01-30T08:56:20.836Z,94143.45
2019-01-30T08:58:47.879Z,94145.88
2019-01-30T09:01:15.033Z,94157.89
2019-01-30T09:03:42.061Z,94163.28
2019-01-30T09:06:09.093Z,94165.75
2019-01-30T09:08:36.236Z,94168.97
2019-01-30T09:11:03.396Z,94175.30
2019-01-30T09:13:30.438Z,94175.89
2019-01-30T09:15:57.576Z,94182.74
2019-01-30T09:18:24.620Z,94177.64
2019-01-30T09:20:51.688Z,94179.22
2019-01-30T09:23:18.733Z,94180.45
2019-01-30T09:25:45.766Z,94178.23
2019-01-30T09:28:12.808Z,94172.32
2019-01-30T09:30:39.851Z,94176.13
2019-01-30T09:33:09.159Z,94176.45
2019-01-30T09:35:36.312Z,94175.12
2019-01-30T09:38:03.385Z,94182.45
2019-01-30T09:40:30.430Z,94195.61
2019-01-30T09:42:57.505Z,94196.41
2019-01-30T09:45:24.693Z,94194.59
2019-01-30T09:47:51.764Z,94199.13
2019-01-30T09:50:19.256Z,94196.56
2019-01-30T09:52:46.344Z,94195.29
2019-01-30T09:55:13.615Z,94196.75
2019-01-30T09:57:40.687Z,94200.83
2019-01-30T10:00:12.111Z,94190.92
2019-01-30T10:02:39.142Z,94203.97
2019-01-30T10:05:07.998Z,94203.38
2019-01-30T10:07:35.064Z,94200.92
2019-01-30T10:13:10.280Z,94216.16
2019-01-30T10:15:39.403Z,94222.05
2019-01-30T10:18:06.754Z,94221.67
2019-01-30T10:20:34.487Z,94231.59
2019-01-30T10:23:01.563Z,94230.44
2019-01-30T10:25:28.608Z,94231.31
2019-01-30T10:27:55.652Z,94229.92
2019-01-30T10:30:27.621Z,94238.43
2019-01-30T10:32:54.688Z,94245.02
2019-01-30T10:35:21.734Z,94245.88
2019-01-30T10:37:48.780Z,94241.92
2019-01-30T10:40:17.009Z,94244.34
2019-01-30T10:42:44.051Z,94245.56
2019-01-30T10:45:11.341Z,94248.23
2019-01-30T10:47:38.385Z,94257.17
2019-01-30T10:50:06.784Z,94250.52
2019-01-30T10:52:33.820Z,94252.06
2019-01-30T10:55:00.877Z,94250.03
2019-01-30T10:57:27.983Z,94248.38
2019-01-30T10:59:55.076Z,94240.00
2019-01-30T11:02:22.271Z,94240.00
2019-01-30T11:04:49.340Z,94241.34
2019-01-30T11:07:16.406Z,94218.38
2019-01-30T11:09:43.514Z,94236.06
2019-01-30T11:12:10.572Z,94241.91
2019-01-30T11:14:37.920Z,94236.22
2019-01-30T11:17:05.000Z,94234.19
2019-01-30T11:19:32.080Z,94234.57
2019-01-30T11:21:59.143Z,94230.71
2019-01-30T11:24:26.193Z,94233.51
2019-01-30T11:26:53.254Z,94237.36
2019-01-30T11:29:20.304Z,94232.20
2019-01-30T11:31:47.367Z,94231.81
2019-01-30T11:34:14.405Z,94225.42
2019-01-30T11:36:41.464Z,94229.16
2019-01-30T11:39:08.521Z,94240.02
2019-01-30T11:41:35.618Z,94257.77
2019-01-30T11:44:02.699Z,94274.22
2019-01-30T11:46:29.753Z,94271.63
2019-01-30T11:48:56.925Z,94287.93
2019-01-30T11:51:23.971Z,94279.41
2019-01-30T11:53:51.028Z,94291.16
2019-01-30T11:56:18.057Z,94288.16
2019-01-30T11:58:45.143Z,94292.66
2019-01-30T12:01:12.211Z,94303.98
2019-01-30T12:03:39.257Z,94299.89
2019-01-30T12:06:06.336Z,94292.61
2019-01-30T12:08:33.377Z,94290.39
2019-01-30T12:11:00.429Z,94293.91
2019-01-30T12:13:27.605Z,94295.28
2019-01-30T12:15:54.693Z,94292.35
2019-01-30T12:18:21.736Z,94295.42
2019-01-30T12:20:48.797Z,94288.38
2019-01-30T12:23:15.889Z,94283.41
2019-01-30T12:25:42.988Z,94295.39
2019-01-30T12:28:10.030Z,94292.02
2019-01-30T12:30:37.093Z,94292.37
2019-01-30T12:33:04.168Z,94292.50
2019-01-30T12:35:31.240Z,94293.83
2019-01-30T12:37:58.316Z,94300.98
2019-01-30T12:40:25.402Z,94302.91
2019-01-30T12:42:52.593Z,94308.78
2019-01-30T12:45:27.794Z,94303.23
2019-01-30T12:47:55.062Z,94307.94
2019-01-30T12:50:22.205Z,94319.22
2019-01-30T12:52:49.391Z,94311.64
2019-01-30T12:55:16.449Z,94312.08
2019-01-30T12:57:43.561Z,94313.58
2019-01-30T13:00:15.722Z,94319.45
2019-01-30T13:02:42.816Z,94320.98
2019-01-30T13:05:10.005Z,94318.32
2019-01-30T13:07:37.085Z,94323.87
2019-01-30T13:10:05.531Z,94325.56
2019-01-30T13:12:32.598Z,94326.61
2019-01-30T13:14:59.657Z,94331.78
2019-01-30T13:17:26.718Z,94335.39
2019-01-30T13:19:53.774Z,94323.82
2019-01-30T13:22:20.852Z,94324.39
2019-01-30T13:24:47.896Z,94327.56
2019-01-30T13:27:14.975Z,94333.11
2019-01-30T13:29:42.066Z,94338.33
2019-01-30T13:32:09.136Z,94343.57
2019-01-30T13:34:36.234Z,94339.61
2019-01-30T13:37:03.281Z,94340.55
2019-01-30T13:39:30.470Z,94348.37
2019-01-30T13:41:57.514Z,94350.08
2019-01-30T13:44:24.568Z,94356.56
2019-01-30T13:46:51.615Z,94347.08
2019-01-30T13:49:18.848Z,94356.91
2019-01-30T13:51:45.923Z,94347.98
2019-01-30T13:54:12.963Z,94349.72
2019-01-30T13:56:40.038Z,94355.38
2019-01-30T13:59:07.107Z,94348.61
2019-01-30T14:01:34.181Z,94344.20
2019-01-30T14:04:01.472Z,94350.71
2019-01-30T14:06:28.520Z,94359.48
2019-01-30T14:08:55.582Z,94359.97
2019-01-30T14:11:22.776Z,94362.03
2019-01-30T14:13:49.806Z,94364.92
2019-01-30T14:16:16.894Z,94365.48
2019-01-30T14:18:43.951Z,94372.97
2019-01-30T14:21:10.995Z,94366.05
2019-01-30T14:23:38.092Z,94372.61
2019-01-30T14:26:05.197Z,94372.00
2019-01-30T14:28:32.465Z,94384.91
2019-01-30T14:30:59.494Z,94382.97
2019-01-30T14:33:26.647Z,94384.54
2019-01-30T14:35:53.771Z,94390.13
2019-01-30T14:38:20.849Z,94393.69
2019-01-30T14:40:47.984Z,94388.53
2019-01-30T14:43:17.472Z,94388.70
2019-01-30T14:45:44.548Z,94396.02
2019-01-30T14:48:11.662Z,94386.33
2019-01-30T14:50:38.727Z,94384.44
2019-01-30T14:53:05.820Z,94380.97
2019-01-30T14:55:32.919Z,94380.41
2019-01-30T14:58:00.065Z,94380.41
2019-01-30T15:01:11.790Z,94377.98
2019-01-30T15:03:38.915Z,94375.77
2019-01-30T15:06:05.964Z,94375.36
2019-01-30T15:08:33.073Z,94385.55
2019-01-30T15:11:00.237Z,94389.14
2019-01-30T15:13:27.300Z,94388.03
2019-01-30T15:15:54.441Z,94393.33
2019-01-30T15:18:21.479Z,94391.72
2019-01-30T15:20:48.656Z,94388.49
2019-01-30T15:23:15.671Z,94388.45
2019-01-30T15:25:42.774Z,94389.44
2019-01-30T15:28:10.638Z,94393.31
2019-01-30T15:30:41.240Z,94389.83
2019-01-30T15:33:09.633Z,94398.48
2019-01-30T15:35:36.821Z,94392.79
2019-01-30T15:38:06.895Z,94396.66
2019-01-30T15:40:34.081Z,94402.69
2019-01-30T15:43:01.429Z,94408.40
2019-01-30T15:45:28.730Z,94401.95
2019-01-30T15:47:55.793Z,94411.66
2019-01-30T15:50:24.814Z,94408.38
2019-01-30T15:52:52.940Z,94411.43
2019-01-30T15:55:20.011Z,94412.58
2019-01-30T15:57:58.529Z,94412.55
2019-01-30T16:00:47.040Z,94411.78
2019-01-30T16:03:14.159Z,94404.64
2019-01-30T16:05:45.009Z,94416.05
2019-01-30T16:08:20.265Z,94422.31
2019-01-30T16:10:47.444Z,94419.80
2019-01-30T16:13:16.162Z,94432.48
2019-01-30T16:15:49.228Z,94431.67
2019-01-30T16:18:17.680Z,94433.69
2019-01-30T16:20:46.828Z,94438.63
2019-01-30T16:23:15.405Z,94444.85
2019-01-30T16:28:50.193Z,94448.88
2019-01-30T16:31:17.318Z,94446.45
2019-01-30T16:36:25.310Z,94441.39
2019-01-30T16:38:52.472Z,94444.48
2019-01-30T16:41:42.758Z,94456.77
2019-01-30T16:44:10.008Z,94462.06
2019-01-30T16:46:37.163Z,94468.10
2019-01-30T16:49:04.389Z,94463.84
2019-01-30T16:51:31.908Z,94472.03
2019-01-30T16:53:59.079Z,94473.06
2019-01-30T16:56:26.247Z,94477.26
2019-01-30T16:58:53.577Z,94475.58
2019-01-30T17:01:20.731Z,94482.64
2019-01-30T17:03:48.802Z,94485.33
2019-01-30T17:06:16.874Z,94491.51
2019-01-30T17:08:43.963Z,94489.97
2019-01-30T17:11:11.147Z,94498.02
2019-01-30T17:13:39.383Z,94499.48
2019-01-30T17:16:06.531Z,94503.81
2019-01-30T17:18:34.316Z,94510.45
2019-01-30T17:21:01.823Z,94509.28
2019-01-30T17:23:29.176Z,94512.95
2019-01-30T17:25:57.874Z,94513.17
2019-01-30T17:28:25.107Z,94512.36
2019-01-30T17:31:23.725Z,94514.49
2019-01-30T17:33:51.129Z,94521.39
2019-01-30T17:36:19.005Z,94524.04
2019-01-30T17:38:46.188Z,94525.36
2019-01-30T17:41:13.384Z,94524.25
2019-01-30T17:43:40.595Z,94528.22
2019-01-30T17:46:07.947Z,94523.45
2019-01-30T17:48:35.346Z,94530.78
2019-01-30T17:51:02.814Z,94528.07
2019-01-30T17:53:31.117Z,94534.38
2019-01-30T17:55:58.463Z,94529.48
2019-01-30T17:58:25.651Z,94526.69
2019-01-30T18:00:57.225Z,94532.62
2019-01-30T18:03:24.404Z,94534.67
2019-01-30T18:05:51.901Z,94536.73
2019-01-30T18:08:21.854Z,94531.61
2019-01-30T18:10:49.061Z,94537.33
2019-01-30T18:13:16.267Z,94548.11
2019-01-30T18:15:43.877Z,94549.64
2019-01-30T18:18:12.184Z,94553.48
2019-01-30T18:20:39.644Z,94550.02
2019-01-30T18:23:08.418Z,94553.56
2019-01-30T18:25:36.095Z,94554.50
2019-01-30T18:28:04.545Z,94557.30
2019-01-30T18:30:32.949Z,94559.36
2019-01-30T18:33:01.057Z,94557.71
2019-01-30T18:35:28.428Z,94564.75
2019-01-30T18:37:57.350Z,94567.81
2019-01-30T18:40:25.073Z,94564.61
2019-01-30T18:42:53.283Z,94565.94
2019-01-30T18:45:23.003Z,94566.23
2019-01-30T18:47:52.532Z,94570.45
2019-01-30T18:50:25.766Z,94571.05
2019-01-30T18:52:58.913Z,94568.66
2019-01-30T18:55:26.547Z,94578.88
2019-01-30T19:01:07.967Z,94580.49
2019-01-30T19:03:35.166Z,94580.20
2019-01-30T19:06:02.771Z,94582.97
2019-01-30T19:08:31.407Z,94587.20
2019-01-30T19:11:04.661Z,94585.28
2019-01-30T19:13:31.929Z,94588.19
2019-01-30T19:15:59.182Z,94592.22
2019-01-30T19:18:30.973Z,94586.98
2019-01-30T19:20:58.991Z,94593.70
2019-01-30T19:23:26.198Z,94595.19
2019-01-30T19:26:12.872Z,94597.95
2019-01-30T19:28:40.976Z,94597.27
2019-01-30T19:31:08.344Z,94596.58
2019-01-30T19:33:35.642Z,94601.98
2019-01-30T19:36:36.645Z,94601.98
2019-01-30T19:42:49.544Z,94599.02
2019-01-30T19:45:18.483Z,94597.63
2019-01-30T19:47:46.632Z,94604.08
2019-01-30T19:50:16.408Z,94594.97
2019-01-30T19:52:46.988Z,94606.42
2019-01-30T19:55:15.301Z,94611.70
2019-01-30T19:58:02.325Z,94613.52
2019-01-30T20:00:34.989Z,94612.11
2019-01-30T20:03:06.966Z,94614.36
2019-01-30T20:05:34.843Z,94621.88
2019-01-30T20:08:03.269Z,94621.72
2019-01-30T20:10:32.579Z,94625.80
2019-01-30T20:13:00.047Z,94629.66
2019-01-30T20:15:31.311Z,94624.59
2019-01-30T20:18:03.008Z,94623.98
2019-01-30T20:20:30.813Z,94626.02
2019-01-30T20:23:00.003Z,94627.03
2019-01-30T20:25:30.221Z,94627.69
2019-01-30T20:27:57.546Z,94625.67
2019-01-30T20:30:25.214Z,94632.47
2019-01-30T20:32:52.622Z,94632.38
2019-01-30T20:35:20.156Z,94628.83
2019-01-30T20:37:47.444Z,94631.88
2019-01-30T20:40:17.154Z,94633.64
2019-01-30T20:42:44.897Z,94637.49
2019-01-30T20:45:12.236Z,94628.68
2019-01-30T20:47:39.394Z,94633.14
2019-01-30T20:50:09.389Z,94642.36
2019-01-30T20:52:36.861Z,94643.08
2019-01-30T20:55:25.878Z,94644.09
2019-01-30T20:57:55.380Z,94642.37
2019-01-30T21:00:24.989Z,94644.30
2019-01-30T21:02:59.009Z,94645.76
2019-01-30T21:05:26.208Z,94642.52
2019-01-30T21:07:55.654Z,94649.51
2019-01-30T21:10:25.704Z,94648.56
2019-01-30T21:12:53.312Z,94645.31
2019-01-30T21:15:40.028Z,94640.34
2019-01-30T21:18:07.994Z,94646.43
2019-01-30T21:20:35.175Z,94650.12
2019-01-30T21:23:02.663Z,94655.29
2019-01-30T21:25:30.138Z,94649.64
2019-01-30T21:27:57.337Z,94654.41
2019-01-30T21:30:27.253Z,94655.95
2019-01-30T21:32:55.713Z,94657.36
2019-01-30T21:35:22.884Z,94657.16
2019-01-30T21:37:50.507Z,94653.73
2019-01-30T21:40:17.728Z,94665.87
2019-01-30T21:42:45.534Z,94662.62
2019-01-30T21:45:15.029Z,94660.39
2019-01-30T21:47:42.217Z,94658.38
2019-01-30T21:50:09.732Z,94657.97
2019-01-30T21:52:36.937Z,94659.07
2019-01-30T21:55:26.733Z,94655.41
2019-01-30T21:57:53.881Z,94660.80
2019-01-30T22:00:25.788Z,94667.35
2019-01-30T22:02:53.427Z,94669.15
2019-01-30T22:05:20.567Z,94669.97
2019-01-30T22:07:47.720Z,94667.11
2019-01-30T22:10:16.977Z,94664.57
2019-01-30T22:12:44.080Z,94664.77
2019-01-30T22:15:12.069Z,94667.39
2019-01-30T22:17:39.320Z,94675.09
2019-01-30T22:20:08.929Z,94674.78
2019-01-30T22:22:35.993Z,94669.02
2019-01-30T22:25:04.223Z,94680.55
2019-01-30T22:27:31.326Z,94690.25
2019-01-30T22:29:58.358Z,94688.63
2019-01-30T22:32:25.406Z,94691.68
2019-01-30T22:34:52.453Z,94689.44
2019-01-30T22:37:19.703Z,94693.70
2019-01-30T22:39:46.761Z,94692.07
2019-01-30T22:42:13.838Z,94689.44
2019-01-30T22:44:40.911Z,94689.63
2019-01-30T22:47:09.122Z,94687.81
2019-01-30T22:49:36.156Z,94686.50
2019-01-30T22:52:03.220Z,94691.56
2019-01-30T22:54:30.290Z,94689.27
2019-01-30T22:56:57.339Z,94687.38
2019-01-30T22:59:24.475Z,94688.69
2019-01-30T23:01:57.856Z,94694.45
2019-01-30T23:04:55.148Z,94692.52
2019-01-30T23:07:58.535Z,94687.54
2019-01-30T23:11:12.056Z,94680.43
2019-01-30T23:14:05.526Z,94679.54
2019-01-30T23:17:12.812Z,94673.75
2019-01-30T23:20:03.093Z,94673.52
2019-01-30T23:23:14.910Z,94673.02
2019-01-30T23:25:50.025Z,94677.73
2019-01-30T23:29:10.659Z,94671.82
2019-01-30T23:32:10.057Z,94674.44
2019-01-30T23:35:03.154Z,94671.58
2019-01-30T23:38:04.999Z,94676.91
2019-01-30T23:41:15.733Z,94669.02
2019-01-30T23:43:58.460Z,94667.16
2019-01-30T23:46:39.461Z,94663.17
2019-01-30T23:49:54.831Z,94665.99
2019-01-30T23:52:33.347Z,94666.73
2019-01-30T23:55:54.088Z,94668.36
2019-01-30T23:59:14.030Z,94669.36
